Time;durP1;ratioP1;P1;durP2;ratioP2;P2;SDS_P1;SDS_P2;PMS_P1;PMS_P2;Temp;Humidity;BMP_temperature;BMP_pressure;BME280_temperature;BME280_humidity;BME280_pressure;Samples;Min_cycle;Max_cycle;Signal;HPM_P1;HPM_P2
2024/04/06 04:07:58;;;;;;;0.30;0.30;;;12.40;99.90;;;;;;4975748;28;20538;-60
2024/04/06 04:10:24;;;;;;;0.33;0.33;;;12.30;99.90;;;;;;4976853;28;20406;-61
2024/04/06 04:12:50;;;;;;;0.30;0.23;;;12.30;99.90;;;;;;4976949;28;20669;-62
2024/04/06 04:15:15;;;;;;;0.30;0.30;;;12.30;99.90;;;;;;4976660;28;20176;-61
2024/04/06 04:17:41;;;;;;;0.30;0.27;;;12.20;99.90;;;;;;4976838;28;20217;-61
2024/04/06 04:20:08;;;;;;;0.30;0.30;;;12.20;99.90;;;;;;4976562;28;20175;-61
2024/04/06 04:22:34;;;;;;;0.43;0.43;;;12.20;99.90;;;;;;4976767;28;20254;-61
2024/04/06 04:24:59;;;;;;;0.30;0.30;;;12.10;99.90;;;;;;4976308;28;20433;-62
2024/04/06 04:27:26;;;;;;;0.30;0.30;;;12.20;99.90;;;;;;4976654;28;20258;-62
2024/04/06 04:29:52;;;;;;;0.30;0.30;;;12.10;99.90;;;;;;4976223;28;20172;-60
2024/04/06 04:32:17;;;;;;;0.30;0.30;;;12.10;99.90;;;;;;4976228;28;20967;-60
2024/04/06 04:34:43;;;;;;;0.33;0.33;;;12.10;99.90;;;;;;4976235;28;20602;-61
2024/04/06 04:37:08;;;;;;;0.30;0.30;;;12.10;99.90;;;;;;4975549;28;20677;-62
2024/04/06 04:39:34;;;;;;;0.30;0.30;;;12.10;99.90;;;;;;4976626;28;20221;-61
2024/04/06 04:42:00;;;;;;;0.30;0.30;;;12.10;99.90;;;;;;4976449;28;20188;-61
2024/04/06 04:44:26;;;;;;;0.30;0.30;;;12.00;99.90;;;;;;4976200;28;20187;-63
2024/04/06 04:46:52;;;;;;;0.30;0.30;;;12.00;99.90;;;;;;4976013;28;20357;-60
2024/04/06 04:49:18;;;;;;;0.30;0.30;;;12.00;99.90;;;;;;4976235;28;20502;-60
2024/04/06 04:51:43;;;;;;;0.30;0.30;;;12.00;99.90;;;;;;4976048;28;20183;-60
2024/04/06 04:54:09;;;;;;;0.30;0.30;;;12.00;99.90;;;;;;4976166;28;20700;-61
2024/04/06 04:56:36;;;;;;;0.30;0.30;;;11.90;99.90;;;;;;4975685;28;20473;-62
2024/04/06 04:59:03;;;;;;;0.30;0.30;;;11.90;99.90;;;;;;4976144;28;20174;-61
2024/04/06 05:01:29;;;;;;;0.37;0.37;;;11.80;99.90;;;;;;4976133;28;20509;-61
2024/04/06 05:03:55;;;;;;;0.37;0.37;;;11.80;99.90;;;;;;4976072;28;20430;-62
2024/04/06 05:06:20;;;;;;;0.30;0.30;;;11.80;99.90;;;;;;4975114;28;20210;-62
2024/04/06 05:08:46;;;;;;;0.33;0.33;;;11.80;99.90;;;;;;4974982;28;20269;-60
2024/04/06 05:11:11;;;;;;;0.50;0.50;;;11.80;99.90;;;;;;4975388;28;20183;-61
2024/04/06 05:13:37;;;;;;;0.40;0.40;;;11.90;99.90;;;;;;4975791;28;20168;-62
2024/04/06 05:16:03;;;;;;;0.30;0.30;;;12.00;99.90;;;;;;4973818;28;20270;-62
2024/04/06 05:18:28;;;;;;;0.30;0.30;;;12.10;99.90;;;;;;4975875;28;20570;-61
2024/04/06 05:20:56;;;;;;;0.30;0.30;;;12.20;99.90;;;;;;4975534;28;20172;-60
2024/04/06 05:23:22;;;;;;;0.30;0.30;;;12.30;99.90;;;;;;4953706;28;20190;-60
2024/04/06 05:25:49;;;;;;;0.30;0.30;;;12.50;99.90;;;;;;4975184;28;20510;-60
2024/04/06 05:28:16;;;;;;;0.40;0.40;;;12.70;99.90;;;;;;4975073;28;20453;-60
2024/04/06 05:30:49;;;;;;;0.30;0.30;;;12.90;99.90;;;;;;4975423;28;20835;-61
2024/04/06 05:33:19;;;;;;;0.30;0.30;;;13.00;99.90;;;;;;4975441;28;20801;-60
2024/04/06 05:35:49;;;;;;;0.30;0.30;;;13.20;99.90;;;;;;4973815;28;20435;-60
2024/04/06 05:38:16;;;;;;;0.30;0.30;;;13.30;99.90;;;;;;4975379;28;20412;-61
2024/04/06 05:40:43;;;;;;;0.30;0.30;;;13.50;99.90;;;;;;4975556;28;20416;-62
2024/04/06 05:43:10;;;;;;;0.30;0.30;;;13.50;99.90;;;;;;4975284;28;20416;-61
2024/04/06 05:45:40;;;;;;;0.30;0.30;;;13.60;99.90;;;;;;4974750;28;20909;-62
2024/04/06 05:48:07;;;;;;;0.30;0.30;;;13.80;99.90;;;;;;4958024;28;20416;-63
2024/04/06 05:50:34;;;;;;;0.30;0.30;;;13.90;99.90;;;;;;4975319;28;20425;-61
2024/04/06 05:53:00;;;;;;;0.30;0.30;;;14.00;99.90;;;;;;4975333;28;20472;-59
2024/04/06 05:55:26;;;;;;;0.30;0.30;;;14.20;99.90;;;;;;4973952;28;20414;-61
2024/04/06 05:57:51;;;;;;;0.30;0.30;;;14.20;99.90;;;;;;4974464;28;20462;-63
2024/04/06 06:00:18;;;;;;;0.30;0.30;;;14.30;99.90;;;;;;4956645;28;20187;-60
2024/04/06 06:02:44;;;;;;;0.40;0.40;;;14.50;99.90;;;;;;4974085;28;20185;-63
2024/04/06 06:05:10;;;;;;;0.30;0.20;;;14.70;99.90;;;;;;4973968;28;20428;-61
2024/04/06 06:07:36;;;;;;;0.40;0.40;;;14.90;99.90;;;;;;4973719;28;20461;-62
2024/04/06 06:10:02;;;;;;;0.33;0.33;;;15.20;99.90;;;;;;4973955;28;20182;-62
2024/04/06 06:12:28;;;;;;;0.30;0.30;;;15.40;99.90;;;;;;4974726;28;20491;-63
2024/04/06 06:14:54;;;;;;;0.40;0.40;;;15.60;99.90;;;;;;4974108;28;20415;-62
2024/04/06 06:17:19;;;;;;;0.30;0.30;;;15.80;99.90;;;;;;4973938;28;20208;-64
2024/04/06 06:19:45;;;;;;;0.87;0.80;;;16.10;99.90;;;;;;4974285;28;20231;-63
2024/04/06 06:22:11;;;;;;;0.40;0.37;;;16.40;99.90;;;;;;4974685;28;20172;-63
2024/04/06 06:24:37;;;;;;;0.33;0.33;;;16.60;99.90;;;;;;4974002;28;20183;-64
2024/04/06 06:27:03;;;;;;;0.30;0.30;;;16.80;99.90;;;;;;4973824;28;20286;-64
2024/04/06 06:29:28;;;;;;;0.30;0.30;;;17.00;99.90;;;;;;4973694;28;20223;-65
2024/04/06 06:31:54;;;;;;;0.30;0.30;;;17.20;99.90;;;;;;4973804;28;20184;-61
2024/04/06 06:34:20;;;;;;;0.30;0.30;;;17.50;99.90;;;;;;4972698;28;20180;-65
2024/04/06 06:36:49;;;;;;;0.30;0.30;;;17.70;99.90;;;;;;4973411;28;20195;-62
2024/04/06 06:39:16;;;;;;;0.40;0.40;;;17.90;99.90;;;;;;4973641;28;20428;-60
2024/04/06 06:41:42;;;;;;;0.30;0.30;;;18.00;99.90;;;;;;4955038;28;20502;-62
2024/04/06 06:44:08;;;;;;;0.30;0.30;;;18.20;99.90;;;;;;4985560;28;20223;-62
2024/04/06 06:46:34;;;;;;;0.30;0.30;;;18.30;99.90;;;;;;4972990;28;20202;-62
2024/04/06 06:49:00;;;;;;;0.30;0.30;;;18.50;99.90;;;;;;4974025;28;20219;-61
2024/04/06 06:51:26;;;;;;;0.30;0.30;;;18.70;99.90;;;;;;4974025;28;20439;-64
2024/04/06 06:53:52;;;;;;;0.60;0.60;;;18.60;99.90;;;;;;4956483;28;20183;-64
2024/04/06 06:56:20;;;;;;;0.30;0.30;;;18.60;99.90;;;;;;4973507;28;20446;-66
2024/04/06 06:58:46;;;;;;;0.30;0.30;;;18.70;99.90;;;;;;4973818;28;20386;-63
2024/04/06 07:01:11;;;;;;;0.40;0.40;;;18.90;99.90;;;;;;4956942;28;20490;-64
2024/04/06 07:03:37;;;;;;;0.30;0.30;;;19.20;99.90;;;;;;4973166;28;20416;-65
2024/04/06 07:06:07;;;;;;;0.30;0.30;;;19.40;99.90;;;;;;4972867;28;20248;-62
2024/04/06 07:08:32;;;;;;;0.30;0.30;;;19.70;99.80;;;;;;4973022;28;20187;-61
2024/04/06 07:11:05;;;;;;;0.30;0.20;;;20.10;99.40;;;;;;4973065;28;20431;-61
2024/04/06 07:13:31;;;;;;;0.30;0.20;;;20.60;98.20;;;;;;4984006;28;20220;-63
2024/04/06 07:16:07;;;;;;;0.50;0.37;;;21.10;97.60;;;;;;4982205;28;20470;-62
2024/04/06 07:18:34;;;;;;;0.30;0.30;;;21.50;97.10;;;;;;4973807;28;20382;-62
2024/04/06 07:21:00;;;;;;;0.30;0.30;;;21.80;95.70;;;;;;4973527;28;20503;-63
2024/04/06 07:23:26;;;;;;;0.30;0.30;;;22.20;95.10;;;;;;4973752;28;20831;-63
2024/04/06 07:25:53;;;;;;;0.30;0.30;;;22.60;94.50;;;;;;4955928;28;20718;-62
2024/04/06 07:28:19;;;;;;;0.30;0.30;;;22.90;94.10;;;;;;4973751;28;20422;-63
2024/04/06 07:30:44;;;;;;;0.30;0.30;;;23.10;93.50;;;;;;4972848;28;20423;-63
2024/04/06 07:33:11;;;;;;;0.30;0.20;;;23.40;92.70;;;;;;4955473;28;20783;-63
2024/04/06 07:35:37;;;;;;;0.40;0.40;;;23.60;92.30;;;;;;4973241;28;20263;-63
2024/04/06 07:38:03;;;;;;;0.73;0.50;;;23.80;91.80;;;;;;4973513;28;20436;-63
2024/04/06 07:40:28;;;;;;;0.30;0.30;;;23.90;91.70;;;;;;4976405;28;20390;-64
2024/04/06 07:42:54;;;;;;;0.30;0.30;;;23.90;92.10;;;;;;4977518;28;20394;-62
2024/04/06 07:45:20;;;;;;;0.33;0.33;;;23.80;92.00;;;;;;4976095;28;20658;-64
2024/04/06 07:47:45;;;;;;;0.30;0.30;;;23.80;92.40;;;;;;4977423;28;20204;-60
2024/04/06 07:50:11;;;;;;;0.30;0.20;;;24.00;92.20;;;;;;4979410;28;20684;-63
2024/04/06 07:52:37;;;;;;;0.30;0.30;;;24.20;91.20;;;;;;4976527;28;20658;-62
2024/04/06 07:55:03;;;;;;;0.30;0.30;;;24.60;91.10;;;;;;4976220;28;20473;-62
2024/04/06 07:57:29;;;;;;;0.30;0.20;;;25.00;90.60;;;;;;4976593;28;20200;-62
2024/04/06 07:59:55;;;;;;;0.30;0.30;;;25.50;89.60;;;;;;4976123;28;20390;-64
2024/04/06 08:02:22;;;;;;;0.30;0.30;;;26.10;86.70;;;;;;4958733;28;20507;-63
2024/04/06 08:04:47;;;;;;;0.30;0.30;;;26.60;86.20;;;;;;4994258;28;20421;-64
2024/04/06 08:07:13;;;;;;;0.30;0.20;;;27.20;85.00;;;;;;4995816;28;20454;-64
2024/04/06 08:09:38;;;;;;;0.30;0.30;;;27.80;82.30;;;;;;4995320;28;20242;-63
2024/04/06 08:12:04;;;;;;;0.43;0.43;;;28.50;79.80;;;;;;4996232;28;20176;-60
2024/04/06 08:14:30;;;;;;;0.30;0.30;;;29.20;77.90;;;;;;4996041;28;20167;-64
2024/04/06 08:16:56;;;;;;;0.30;0.30;;;29.80;77.10;;;;;;4995849;28;20730;-63
2024/04/06 08:19:21;;;;;;;0.30;0.30;;;30.50;73.60;;;;;;4995906;28;20184;-64
2024/04/06 08:21:47;;;;;;;0.30;0.30;;;30.80;72.20;;;;;;4996101;28;20175;-63
2024/04/06 08:24:12;;;;;;;0.30;0.30;;;30.90;73.60;;;;;;4984832;28;20173;-62
2024/04/06 08:26:38;;;;;;;0.50;0.47;;;31.00;69.70;;;;;;4976079;28;20200;-64
2024/04/06 08:29:04;;;;;;;0.67;0.67;;;31.40;67.60;;;;;;4976473;28;20214;-62
2024/04/06 08:31:29;;;;;;;0.30;0.30;;;31.80;65.90;;;;;;4976371;28;20693;-64
2024/04/06 08:33:55;;;;;;;0.30;0.30;;;32.30;65.00;;;;;;4976417;28;20606;-61
2024/04/06 08:36:20;;;;;;;0.40;0.40;;;33.00;63.30;;;;;;4975790;28;20278;-63
2024/04/06 08:38:46;;;;;;;0.40;0.40;;;33.30;61.00;;;;;;4986463;28;20650;-64
2024/04/06 08:41:12;;;;;;;0.40;0.40;;;33.40;62.00;;;;;;4995885;28;20207;-62
2024/04/06 08:43:43;;;;;;;0.40;0.40;;;33.20;60.50;;;;;;4995562;28;20214;-61
2024/04/06 08:46:09;;;;;;;0.40;0.40;;;33.40;59.90;;;;;;4995145;28;20789;-62
2024/04/06 08:48:36;;;;;;;0.30;0.30;;;33.60;59.50;;;;;;4995627;28;20399;-62
2024/04/06 08:51:03;;;;;;;0.30;0.30;;;33.50;59.20;;;;;;4981629;28;20176;-62
2024/04/06 08:53:30;;;;;;;0.40;0.40;;;33.50;59.50;;;;;;4975923;28;20416;-63
2024/04/06 08:55:56;;;;;;;0.50;0.50;;;33.50;58.90;;;;;;4975461;28;20402;-66
2024/04/06 08:58:22;;;;;;;0.50;0.50;;;33.60;58.70;;;;;;4980231;28;20430;-65
2024/04/06 09:00:50;;;;;;;0.47;0.47;;;33.80;58.70;;;;;;4995357;28;20545;-63
2024/04/06 09:03:16;;;;;;;0.30;0.30;;;33.60;58.50;;;;;;4995085;28;20418;-63
2024/04/06 09:05:42;;;;;;;0.40;0.40;;;33.80;58.50;;;;;;4994759;28;20427;-63
2024/04/06 09:08:08;;;;;;;0.40;0.40;;;34.50;58.50;;;;;;4961502;28;20278;-65
2024/04/06 09:10:35;;;;;;;0.40;0.40;;;34.70;56.90;;;;;;4994976;28;20959;-63
2024/04/06 09:13:00;;;;;;;1.57;0.50;;;34.90;57.40;;;;;;4995355;28;20176;-62
2024/04/06 09:15:26;;;;;;;0.50;0.50;;;35.40;56.60;;;;;;4994568;28;20418;-63
2024/04/06 09:17:52;;;;;;;0.40;0.40;;;35.80;55.80;;;;;;4994513;28;20204;-64
2024/04/06 09:20:17;;;;;;;0.47;0.47;;;36.00;55.00;;;;;;4995045;28;20172;-64
2024/04/06 09:22:43;;;;;;;0.50;0.50;;;36.20;54.40;;;;;;4995008;28;20179;-64
2024/04/06 09:25:09;;;;;;;0.70;0.70;;;36.40;54.40;;;;;;4994627;28;20681;-63
2024/04/06 09:27:42;;;;;;;0.40;0.40;;;36.60;54.80;;;;;;4994709;28;20199;-65
2024/04/06 09:30:08;;;;;;;0.50;0.50;;;36.70;53.20;;;;;;4994766;28;20190;-64
2024/04/06 09:32:35;;;;;;;0.40;0.40;;;36.40;53.40;;;;;;4974319;28;20423;-65
2024/04/06 09:35:02;;;;;;;0.40;0.40;;;36.50;52.60;;;;;;4957440;28;20427;-64
2024/04/06 09:37:34;;;;;;;3.90;0.70;;;36.60;52.20;;;;;;4974971;28;20456;-65
2024/04/06 09:40:02;;;;;;;0.40;0.40;;;36.60;51.50;;;;;;4975233;28;20400;-65
2024/04/06 09:42:29;;;;;;;0.40;0.40;;;36.50;50.30;;;;;;4975283;28;20802;-61
2024/04/06 09:44:56;;;;;;;0.40;0.40;;;36.10;50.60;;;;;;4974795;28;20475;-63
2024/04/06 09:47:23;;;;;;;0.40;0.40;;;35.80;49.70;;;;;;4974755;28;20463;-63
2024/04/06 09:49:49;;;;;;;0.40;0.40;;;35.30;50.30;;;;;;4975158;28;20478;-64
2024/04/06 09:52:20;;;;;;;0.40;0.40;;;35.30;50.10;;;;;;4975138;28;20921;-63
2024/04/06 09:54:47;;;;;;;0.40;0.40;;;35.40;51.60;;;;;;4974736;28;20407;-63
2024/04/06 09:57:13;;;;;;;0.40;0.40;;;35.80;50.30;;;;;;4974642;28;20431;-63
2024/04/06 09:59:40;;;;;;;1.03;0.60;;;36.20;50.40;;;;;;4974885;28;20432;-61
2024/04/06 10:02:07;;;;;;;0.57;0.57;;;36.70;50.80;;;;;;4977423;28;20437;-64
2024/04/06 10:04:37;;;;;;;0.60;0.60;;;36.80;51.20;;;;;;4993845;28;20494;-64
2024/04/06 10:07:04;;;;;;;1.23;0.60;;;36.70;50.70;;;;;;4993926;28;20470;-64
2024/04/06 10:09:37;;;;;;;0.73;0.73;;;37.00;49.70;;;;;;4994141;28;20407;-63
2024/04/06 10:12:07;;;;;;;0.70;0.70;;;37.00;49.10;;;;;;4993993;28;20411;-65
2024/04/06 10:14:43;;;;;;;0.47;0.47;;;37.10;49.40;;;;;;4993803;28;20824;-64
2024/04/06 10:17:15;;;;;;;0.40;0.40;;;36.50;48.10;;;;;;4994065;28;20454;-63
2024/04/06 10:19:41;;;;;;;0.50;0.50;;;35.90;49.40;;;;;;4994104;28;20414;-63
2024/04/06 10:22:06;;;;;;;0.40;0.40;;;35.80;47.60;;;;;;4993653;28;20450;-64
2024/04/06 10:24:36;;;;;;;0.43;0.43;;;35.90;48.90;;;;;;4993535;28;20450;-65
2024/04/06 10:27:02;;;;;;;0.50;0.50;;;35.80;48.50;;;;;;4993513;28;20736;-64
2024/04/06 10:29:28;;;;;;;0.43;0.43;;;35.90;47.60;;;;;;4993674;28;20446;-65
2024/04/06 10:31:54;;;;;;;0.40;0.40;;;36.20;47.00;;;;;;4993513;28;20857;-63
2024/04/06 10:34:20;;;;;;;0.40;0.40;;;36.30;46.80;;;;;;4976339;28;20429;-62
2024/04/06 10:36:47;;;;;;;0.50;0.50;;;36.20;46.40;;;;;;4993281;28;20513;-64
2024/04/06 10:39:16;;;;;;;0.40;0.40;;;35.90;47.30;;;;;;4980484;28;21685;-62
2024/04/06 10:41:43;;;;;;;0.50;0.40;;;35.70;47.00;;;;;;4956900;28;20420;-64
2024/04/06 10:44:09;;;;;;;0.50;0.43;;;35.30;47.00;;;;;;4974241;28;20430;-60
2024/04/06 10:46:36;;;;;;;0.60;0.60;;;35.00;47.30;;;;;;4973454;28;20545;-61
2024/04/06 10:49:08;;;;;;;0.40;0.40;;;35.00;48.30;;;;;;4974094;28;20422;-62
2024/04/06 10:51:33;;;;;;;0.43;0.43;;;35.20;46.30;;;;;;4974023;28;20778;-64
2024/04/06 10:53:59;;;;;;;0.40;0.40;;;35.30;47.70;;;;;;4987919;28;20418;-64
2024/04/06 10:56:26;;;;;;;0.70;0.40;;;35.40;46.20;;;;;;4993307;28;20204;-64
2024/04/06 10:58:52;;;;;;;0.40;0.40;;;34.90;45.80;;;;;;4993680;28;20519;-64
2024/04/06 11:01:19;;;;;;;0.50;0.50;;;34.60;48.00;;;;;;4988868;28;20424;-65
2024/04/06 11:03:48;;;;;;;0.50;0.50;;;34.40;46.40;;;;;;4973524;28;20419;-64
2024/04/06 11:06:14;;;;;;;0.30;0.30;;;34.20;45.60;;;;;;4976735;28;20593;-64
2024/04/06 11:08:41;;;;;;;0.30;0.30;;;33.90;43.60;;;;;;4993259;28;20541;-63
2024/04/06 11:11:09;;;;;;;0.30;0.30;;;33.70;44.90;;;;;;4993386;28;20410;-64
2024/04/06 11:13:41;;;;;;;0.30;0.30;;;33.30;43.60;;;;;;4977716;28;20422;-63
2024/04/06 11:16:10;;;;;;;0.30;0.20;;;32.70;43.30;;;;;;4997001;28;20434;-63
2024/04/06 11:18:42;;;;;;;0.30;0.30;;;32.10;45.50;;;;;;4997229;28;20435;-61
2024/04/06 11:21:12;;;;;;;0.30;0.30;;;31.50;47.60;;;;;;4987572;28;20419;-61
2024/04/06 11:23:38;;;;;;;0.40;0.40;;;31.00;46.00;;;;;;4975246;28;20379;-60
2024/04/06 11:26:04;;;;;;;0.30;0.30;;;30.40;47.00;;;;;;4977159;28;20502;-65
2024/04/06 11:28:30;;;;;;;0.70;0.43;;;29.90;46.70;;;;;;4960314;28;20172;-66
2024/04/06 11:30:57;;;;;;;0.30;0.30;;;29.40;47.30;;;;;;4977753;28;20386;-65
2024/04/06 11:33:23;;;;;;;0.30;0.20;;;29.00;46.30;;;;;;4960119;28;20266;-66
2024/04/06 11:35:48;;;;;;;0.30;0.20;;;28.60;47.40;;;;;;4976948;28;20525;-67
2024/04/06 11:38:14;;;;;;;0.30;0.30;;;28.40;46.60;;;;;;4977520;28;20180;-66
2024/04/06 11:40:47;;;;;;;0.50;0.50;;;28.20;47.40;;;;;;4977316;28;20538;-64
2024/04/06 11:43:15;;;;;;;0.30;0.20;;;28.10;47.90;;;;;;4977524;28;20207;-63
2024/04/06 11:45:41;;;;;;;0.40;0.40;;;28.00;47.00;;;;;;4976911;28;20417;-65
2024/04/06 11:48:07;;;;;;;0.30;0.20;;;28.00;49.10;;;;;;4977063;28;20437;-65
2024/04/06 11:50:33;;;;;;;0.30;0.30;;;27.90;47.50;;;;;;4989546;28;20459;-65
2024/04/06 11:52:58;;;;;;;0.30;0.20;;;27.80;47.50;;;;;;4996794;28;20374;-65
2024/04/06 11:55:24;;;;;;;0.30;0.20;;;27.70;49.10;;;;;;4995604;28;20176;-63
2024/04/06 11:57:50;;;;;;;0.30;0.20;;;27.70;48.60;;;;;;4996150;28;20183;-67
2024/04/06 12:00:16;;;;;;;0.67;0.40;;;27.70;46.90;;;;;;4995609;28;20172;-65
2024/04/06 12:02:41;;;;;;;0.40;0.40;;;27.60;47.60;;;;;;4995360;28;20190;-66
2024/04/06 12:05:07;;;;;;;0.30;0.30;;;27.50;46.70;;;;;;4995636;28;20380;-64
2024/04/06 12:07:38;;;;;;;0.30;0.30;;;27.40;46.60;;;;;;4995859;28;20269;-66
2024/04/06 12:10:07;;;;;;;0.30;0.30;;;27.40;47.70;;;;;;4994362;28;20431;-67
2024/04/06 12:12:32;;;;;;;0.30;0.27;;;27.30;47.00;;;;;;4994214;28;20413;-65
2024/04/06 12:14:58;;;;;;;0.40;0.30;;;27.40;47.30;;;;;;4978806;28;20472;-62
2024/04/06 12:17:29;;;;;;;0.30;0.30;;;27.40;46.60;;;;;;4974483;28;20215;-62
2024/04/06 12:19:55;;;;;;;0.30;0.30;;;27.40;46.20;;;;;;4974624;28;20183;-65
2024/04/06 12:22:21;;;;;;;0.30;0.20;;;27.50;47.00;;;;;;4974656;28;20377;-65
2024/04/06 12:24:46;;;;;;;0.33;0.33;;;27.60;46.20;;;;;;4975481;28;20211;-66
2024/04/06 12:27:14;;;;;;;0.30;0.30;;;27.70;48.10;;;;;;4976495;28;20291;-66
2024/04/06 12:29:40;;;;;;;0.30;0.30;;;27.70;47.50;;;;;;4977550;28;20589;-67
2024/04/06 12:32:06;;;;;;;0.30;0.20;;;27.90;47.50;;;;;;4976442;28;20433;-64
2024/04/06 12:34:32;;;;;;;0.30;0.30;;;28.00;47.10;;;;;;4976380;28;20182;-65
2024/04/06 12:37:01;;;;;;;0.40;0.30;;;28.10;47.40;;;;;;4959091;28;20983;-63
2024/04/06 12:39:27;;;;;;;0.30;0.30;;;28.10;46.90;;;;;;4976447;28;20173;-64
2024/04/06 12:41:52;;;;;;;0.30;0.30;;;28.20;46.90;;;;;;4976529;28;20923;-66
2024/04/06 12:44:18;;;;;;;0.30;0.30;;;28.30;48.60;;;;;;4984484;28;20203;-63
2024/04/06 12:46:44;;;;;;;0.30;0.20;;;28.30;48.30;;;;;;4982179;28;20219;-63
2024/04/06 12:49:09;;;;;;;0.30;0.20;;;28.30;47.80;;;;;;4976401;28;20242;-65
2024/04/06 12:51:35;;;;;;;0.30;0.20;;;28.20;48.80;;;;;;4976317;28;20643;-64
2024/04/06 12:54:02;;;;;;;0.30;0.23;;;28.20;49.30;;;;;;4975965;28;20212;-64
2024/04/06 12:56:28;;;;;;;0.30;0.30;;;28.20;47.90;;;;;;4975757;28;20247;-67
2024/04/06 12:58:54;;;;;;;0.30;0.20;;;28.10;48.90;;;;;;4973328;28;20433;-65
2024/04/06 13:01:20;;;;;;;0.30;0.30;;;28.10;48.70;;;;;;4975539;28;20438;-65
2024/04/06 13:03:46;;;;;;;0.30;0.30;;;28.20;48.80;;;;;;4975569;28;20204;-62
2024/04/06 13:06:12;;;;;;;0.30;0.30;;;28.10;48.00;;;;;;4974823;28;20210;-61
2024/04/06 13:08:38;;;;;;;0.40;0.40;;;28.10;48.20;;;;;;4975042;28;20522;-63
2024/04/06 13:11:03;;;;;;;0.30;0.20;;;28.10;47.80;;;;;;4975460;28;20188;-63
2024/04/06 13:13:29;;;;;;;0.80;0.80;;;28.00;47.40;;;;;;4975528;28;20172;-62
2024/04/06 13:15:54;;;;;;;0.47;0.47;;;28.00;47.50;;;;;;4974648;28;20658;-61
2024/04/06 13:18:20;;;;;;;0.30;0.30;;;28.00;47.90;;;;;;4975829;28;20179;-61
2024/04/06 13:20:47;;;;;;;0.30;0.20;;;28.00;48.00;;;;;;4975941;28;20176;-64
2024/04/06 13:23:13;;;;;;;0.30;0.30;;;28.00;49.00;;;;;;4975728;28;20183;-62
2024/04/06 13:25:39;;;;;;;0.30;0.30;;;28.10;48.50;;;;;;4974985;28;20981;-63
2024/04/06 13:28:05;;;;;;;0.30;0.20;;;28.10;47.50;;;;;;4975568;28;20438;-63
2024/04/06 13:30:31;;;;;;;0.30;0.30;;;28.00;47.60;;;;;;4974990;28;20751;-62
2024/04/06 13:32:57;;;;;;;0.30;0.20;;;28.00;48.10;;;;;;4975450;28;20431;-63
2024/04/06 13:35:23;;;;;;;0.40;0.30;;;28.00;47.90;;;;;;4975106;28;20175;-63
2024/04/06 13:37:48;;;;;;;0.30;0.30;;;28.00;47.00;;;;;;4973969;28;20207;-62
2024/04/06 13:40:15;;;;;;;0.30;0.20;;;28.00;47.50;;;;;;4985617;28;20428;-64
2024/04/06 13:42:42;;;;;;;0.30;0.30;;;27.90;48.20;;;;;;4991016;28;20187;-66
2024/04/06 13:45:12;;;;;;;0.30;0.20;;;28.00;49.60;;;;;;4974502;28;20418;-65
2024/04/06 13:47:41;;;;;;;0.70;0.40;;;28.00;49.50;;;;;;4975005;28;20490;-67
2024/04/06 13:50:08;;;;;;;0.30;0.30;;;28.00;49.20;;;;;;4975041;28;20411;-66
2024/04/06 13:52:34;;;;;;;0.60;0.37;;;28.00;49.30;;;;;;4979990;28;20406;-63
2024/04/06 13:55:00;;;;;;;0.40;0.40;;;28.00;46.70;;;;;;4973351;28;20831;-65
2024/04/06 13:57:25;;;;;;;0.30;0.30;;;28.00;46.30;;;;;;4974626;28;20485;-66
2024/04/06 13:59:51;;;;;;;0.30;0.30;;;28.00;46.70;;;;;;4974334;28;20491;-62
2024/04/06 14:02:17;;;;;;;0.30;0.30;;;27.90;45.90;;;;;;4974188;28;20182;-67
2024/04/06 14:04:42;;;;;;;0.30;0.20;;;27.80;46.10;;;;;;4974109;28;20390;-64
2024/04/06 14:07:08;;;;;;;0.30;0.30;;;27.80;46.20;;;;;;4974391;28;20732;-65
2024/04/06 14:09:35;;;;;;;0.30;0.20;;;27.70;46.10;;;;;;4974635;28;20175;-66
2024/04/06 14:12:04;;;;;;;0.30;0.20;;;27.70;46.70;;;;;;4957447;28;20615;-66
2024/04/06 14:14:30;;;;;;;0.30;0.20;;;27.70;46.30;;;;;;4974382;28;20419;-65
2024/04/06 14:16:56;;;;;;;0.30;0.30;;;27.60;45.60;;;;;;4973744;28;20914;-63
2024/04/06 14:19:22;;;;;;;0.30;0.30;;;27.60;45.80;;;;;;4974028;28;20179;-65
2024/04/06 14:21:52;;;;;;;0.30;0.20;;;27.50;45.60;;;;;;4988700;28;20430;-62
2024/04/06 14:24:18;;;;;;;0.30;0.20;;;27.50;45.40;;;;;;4993852;28;20911;-64
2024/04/06 14:26:48;;;;;;;0.30;0.30;;;27.50;45.80;;;;;;4993238;28;20968;-62
2024/04/06 14:29:13;;;;;;;0.50;0.50;;;27.50;45.60;;;;;;4986177;28;20423;-64
2024/04/06 14:31:39;;;;;;;0.30;0.27;;;27.50;46.70;;;;;;4974229;28;20385;-64
2024/04/06 14:34:06;;;;;;;0.30;0.20;;;27.50;46.00;;;;;;4974578;28;20175;-63
2024/04/06 14:36:32;;;;;;;0.30;0.30;;;27.60;46.20;;;;;;4973690;28;20295;-62
2024/04/06 14:38:58;;;;;;;0.30;0.30;;;27.60;47.10;;;;;;4973559;28;20510;-61
2024/04/06 14:41:25;;;;;;;0.30;0.30;;;27.60;47.40;;;;;;4974259;28;20317;-61
2024/04/06 14:43:51;;;;;;;0.30;0.30;;;27.70;46.50;;;;;;4982015;28;20210;-62
2024/04/06 14:46:16;;;;;;;0.30;0.30;;;27.70;46.50;;;;;;4973255;28;20521;-61
2024/04/06 14:48:42;;;;;;;0.30;0.20;;;27.70;47.00;;;;;;4974072;28;20518;-61
2024/04/06 14:51:08;;;;;;;0.40;0.40;;;27.80;46.90;;;;;;4974004;28;20251;-63
2024/04/06 14:53:33;;;;;;;0.40;0.30;;;27.80;46.90;;;;;;4973047;28;20539;-62
2024/04/06 14:55:59;;;;;;;0.30;0.20;;;27.80;47.10;;;;;;4972648;28;20535;-62
2024/04/06 14:58:25;;;;;;;0.40;0.40;;;27.80;46.50;;;;;;4980998;28;20167;-61
2024/04/06 15:00:50;;;;;;;0.40;0.30;;;27.90;45.70;;;;;;4992252;28;20195;-63
2024/04/06 15:03:18;;;;;;;0.30;0.30;;;27.90;45.60;;;;;;4974906;28;20199;-63
2024/04/06 15:05:45;;;;;;;0.30;0.30;;;27.90;46.30;;;;;;4991973;28;20206;-62
2024/04/06 15:08:12;;;;;;;0.30;0.30;;;27.90;46.00;;;;;;4992989;28;20472;-62
2024/04/06 15:10:38;;;;;;;0.30;0.20;;;27.80;46.30;;;;;;4976023;28;20421;-63
2024/04/06 15:13:04;;;;;;;0.30;0.30;;;27.80;45.70;;;;;;4974592;28;20500;-62
2024/04/06 15:15:30;;;;;;;0.30;0.20;;;27.70;45.20;;;;;;4973775;28;20411;-62
2024/04/06 15:17:55;;;;;;;0.30;0.30;;;27.60;45.60;;;;;;4974559;28;20263;-62
2024/04/06 15:20:22;;;;;;;0.30;0.30;;;27.50;46.10;;;;;;4973897;28;20590;-63
2024/04/06 15:22:48;;;;;;;0.30;0.30;;;27.40;45.40;;;;;;4973991;28;20176;-63
2024/04/06 15:25:13;;;;;;;0.30;0.30;;;27.40;46.30;;;;;;4973271;28;20422;-63
2024/04/06 15:27:39;;;;;;;0.30;0.30;;;27.30;45.60;;;;;;4973585;28;20306;-62
2024/04/06 15:30:06;;;;;;;0.30;0.30;;;27.30;46.20;;;;;;4973679;28;20257;-62
2024/04/06 15:32:33;;;;;;;0.30;0.30;;;27.40;44.90;;;;;;4973852;28;20406;-62
2024/04/06 15:34:59;;;;;;;0.30;0.30;;;27.30;45.30;;;;;;4973494;28;20384;-63
2024/04/06 15:37:24;;;;;;;0.30;0.30;;;27.30;45.60;;;;;;4973428;28;20450;-62
2024/04/06 15:39:50;;;;;;;0.30;0.30;;;27.30;45.80;;;;;;4973929;28;20643;-64
2024/04/06 15:42:19;;;;;;;0.30;0.20;;;27.30;45.60;;;;;;4992879;28;20179;-63
2024/04/06 15:44:45;;;;;;;0.30;0.20;;;27.30;45.60;;;;;;4992786;28;20214;-62
2024/04/06 15:47:10;;;;;;;0.33;0.33;;;27.20;45.60;;;;;;4993073;28;20509;-62
2024/04/06 15:49:36;;;;;;;0.40;0.40;;;27.20;45.40;;;;;;4993127;28;20200;-63
2024/04/06 15:52:01;;;;;;;0.30;0.30;;;27.20;45.90;;;;;;4993006;28;20181;-63
2024/04/06 15:54:27;;;;;;;0.30;0.30;;;27.10;45.40;;;;;;4975284;28;20265;-64
2024/04/06 15:56:52;;;;;;;0.30;0.20;;;27.10;46.00;;;;;;4992451;28;20620;-69
2024/04/06 15:59:18;;;;;;;0.30;0.30;;;27.10;46.10;;;;;;4975584;28;20182;-64
2024/04/06 16:01:44;;;;;;;0.30;0.30;;;27.00;46.20;;;;;;4996025;28;20178;-63
2024/04/06 16:04:10;;;;;;;0.30;0.27;;;27.00;46.40;;;;;;4996227;28;20187;-64
2024/04/06 16:06:36;;;;;;;0.30;0.30;;;26.90;46.40;;;;;;4995369;28;20237;-67
2024/04/06 16:09:03;;;;;;;0.70;0.50;;;26.90;46.70;;;;;;4987242;28;20269;-65
2024/04/06 16:11:29;;;;;;;0.30;0.23;;;26.80;46.90;;;;;;4976960;28;20480;-65
2024/04/06 16:13:59;;;;;;;0.30;0.30;;;26.80;47.20;;;;;;4976634;28;20406;-63
2024/04/06 16:16:24;;;;;;;0.30;0.20;;;26.70;47.20;;;;;;4976269;28;20411;-62
2024/04/06 16:18:50;;;;;;;0.30;0.30;;;26.60;47.40;;;;;;4976374;28;20422;-61
2024/04/06 16:21:16;;;;;;;0.30;0.30;;;26.60;47.70;;;;;;4976389;28;20204;-61
2024/04/06 16:23:41;;;;;;;0.30;0.30;;;26.50;47.90;;;;;;4976456;28;20204;-60
2024/04/06 16:26:07;;;;;;;0.50;0.50;;;26.40;47.80;;;;;;4958992;28;20293;-61
2024/04/06 16:28:33;;;;;;;0.30;0.20;;;26.40;47.90;;;;;;4976585;28;20205;-62
2024/04/06 16:30:59;;;;;;;0.30;0.20;;;26.40;47.80;;;;;;4976609;28;20221;-61
2024/04/06 16:33:27;;;;;;;0.30;0.30;;;26.30;48.10;;;;;;4977388;28;20383;-62
2024/04/06 16:35:54;;;;;;;0.30;0.20;;;26.30;48.30;;;;;;4976172;28;20430;-60
2024/04/06 16:38:20;;;;;;;0.30;0.30;;;26.20;48.00;;;;;;4976064;28;20451;-60
2024/04/06 16:40:46;;;;;;;0.30;0.30;;;26.10;48.10;;;;;;4958180;28;21013;-60
2024/04/06 16:43:14;;;;;;;0.30;0.30;;;26.10;48.30;;;;;;4975585;28;20216;-62
2024/04/06 16:45:40;;;;;;;0.40;0.40;;;26.00;48.10;;;;;;4975382;28;20528;-62
2024/04/06 16:48:07;;;;;;;0.30;0.30;;;26.00;48.20;;;;;;4980060;28;20438;-61
2024/04/06 16:50:33;;;;;;;0.30;0.30;;;25.90;48.40;;;;;;4995242;28;20846;-61